createdAt,value
2023-03-17T00:01:54.995Z,15.93
2023-03-17T00:04:24.605Z,16.02
2023-03-17T00:06:52.938Z,16.08
2023-03-17T00:09:22.439Z,16.17
2023-03-17T00:11:50.248Z,16.16
2023-03-17T00:14:18.994Z,16.21
2023-03-17T00:16:50.351Z,16.23
2023-03-17T00:19:24.358Z,16.18
2023-03-17T00:21:51.819Z,16.19
2023-03-17T00:24:18.798Z,16.21
2023-03-17T00:26:46.318Z,16.18
2023-03-17T00:29:13.884Z,16.06
2023-03-17T00:31:48.530Z,16.04
2023-03-17T00:34:19.006Z,15.92
2023-03-17T00:36:49.822Z,15.97
2023-03-17T00:39:17.296Z,15.96
2023-03-17T00:41:44.421Z,15.97
2023-03-17T00:44:12.043Z,15.93
2023-03-17T00:46:41.664Z,15.97
2023-03-17T00:49:22.238Z,15.90
2023-03-17T00:51:50.153Z,15.90
2023-03-17T00:54:19.528Z,15.82
2023-03-17T00:56:48.422Z,15.53
2023-03-17T00:59:24.377Z,15.60
2023-03-17T01:01:52.267Z,15.64
2023-03-17T01:04:21.106Z,15.69
2023-03-17T01:06:49.695Z,15.73
2023-03-17T01:09:20.487Z,15.74
2023-03-17T01:11:48.840Z,15.71
2023-03-17T01:14:16.911Z,15.73
2023-03-17T01:16:44.826Z,15.74
2023-03-17T01:19:13.494Z,15.75
2023-03-17T01:21:40.924Z,15.72
2023-03-17T01:24:08.562Z,15.71
2023-03-17T01:26:35.551Z,15.68
2023-03-17T01:29:02.530Z,15.69
2023-03-17T01:31:29.694Z,15.73
2023-03-17T01:33:56.947Z,15.73
2023-03-17T01:36:24.162Z,15.67
2023-03-17T01:38:51.699Z,15.63
2023-03-17T01:41:20.965Z,15.62
2023-03-17T01:43:48.165Z,15.58
2023-03-17T01:46:21.100Z,15.55
2023-03-17T01:48:54.231Z,15.49
2023-03-17T01:51:47.125Z,15.40
2023-03-17T01:54:24.781Z,15.42
2023-03-17T01:56:53.927Z,15.35
2023-03-17T01:59:27.354Z,15.38
2023-03-17T02:02:01.510Z,15.34
2023-03-17T02:04:29.873Z,15.28
2023-03-17T02:06:58.948Z,15.33
2023-03-17T02:09:28.287Z,15.35
2023-03-17T02:11:56.468Z,15.35
2023-03-17T02:14:23.827Z,15.36
2023-03-17T02:16:50.918Z,15.33
2023-03-17T02:19:17.827Z,15.34
2023-03-17T02:21:56.994Z,15.35
2023-03-17T02:24:38.033Z,15.27
2023-03-17T02:27:16.724Z,15.24
2023-03-17T02:29:46.574Z,15.22
2023-03-17T02:32:17.853Z,15.19
2023-03-17T02:34:46.612Z,15.16
2023-03-17T02:37:14.173Z,15.14
2023-03-17T02:39:41.685Z,15.15
2023-03-17T02:42:09.638Z,15.14
2023-03-17T02:44:36.656Z,15.11
2023-03-17T02:47:03.635Z,15.11
2023-03-17T02:49:31.853Z,15.09
2023-03-17T02:51:58.794Z,15.06
2023-03-17T02:54:26.663Z,15.02
2023-03-17T02:56:53.590Z,15.02
2023-03-17T02:59:20.823Z,14.97
2023-03-17T03:01:48.699Z,14.99
2023-03-17T03:04:15.626Z,14.96
2023-03-17T03:06:44.805Z,14.95
2023-03-17T03:09:12.005Z,14.88
2023-03-17T03:11:39.720Z,14.90
2023-03-17T03:14:08.251Z,14.88
2023-03-17T03:16:35.199Z,14.89
2023-03-17T03:19:02.342Z,14.88
2023-03-17T03:21:29.362Z,14.87
2023-03-17T03:23:56.331Z,14.91
2023-03-17T03:26:23.317Z,14.93
2023-03-17T03:28:50.740Z,14.96
2023-03-17T03:31:17.773Z,14.97
2023-03-17T03:33:44.889Z,14.96
2023-03-17T03:36:12.121Z,14.97
2023-03-17T03:38:39.401Z,14.98
2023-03-17T03:41:06.455Z,15.00
2023-03-17T03:43:33.352Z,15.02
2023-03-17T03:46:00.860Z,15.07
2023-03-17T03:48:28.214Z,15.08
2023-03-17T03:50:59.172Z,15.12
2023-03-17T03:53:26.636Z,15.14
2023-03-17T03:55:54.190Z,15.15
2023-03-17T03:58:21.793Z,15.18
2023-03-17T04:00:48.734Z,15.19
2023-03-17T04:03:16.141Z,15.16
2023-03-17T04:05:43.348Z,15.17
2023-03-17T04:08:11.447Z,15.18
2023-03-17T04:10:38.377Z,15.21
2023-03-17T04:13:05.612Z,15.21
2023-03-17T04:15:32.518Z,15.19
2023-03-17T04:17:59.396Z,15.19
2023-03-17T04:20:26.367Z,15.17
2023-03-17T04:22:53.602Z,15.13
2023-03-17T04:25:20.538Z,15.10
2023-03-17T04:27:47.568Z,15.06
2023-03-17T04:30:14.903Z,15.06
2023-03-17T04:32:42.080Z,15.01
2023-03-17T04:35:14.196Z,14.99
2023-03-17T04:37:41.677Z,14.95
2023-03-17T04:40:10.156Z,14.90
2023-03-17T04:42:37.980Z,14.84
2023-03-17T04:45:06.508Z,14.78
2023-03-17T04:47:33.871Z,14.74
2023-03-17T04:50:01.649Z,14.73
2023-03-17T04:52:28.790Z,14.71
2023-03-17T04:54:55.945Z,14.66
2023-03-17T04:57:24.596Z,14.65
2023-03-17T04:59:51.810Z,14.59
2023-03-17T05:02:19.126Z,14.53
2023-03-17T05:04:46.891Z,14.54
2023-03-17T05:07:14.261Z,14.51
2023-03-17T05:09:42.071Z,14.47
2023-03-17T05:12:10.053Z,14.48
2023-03-17T05:14:37.830Z,14.44
2023-03-17T05:17:04.875Z,14.46
2023-03-17T05:19:32.113Z,14.48
2023-03-17T05:21:59.063Z,14.51
2023-03-17T05:24:26.138Z,14.54
2023-03-17T05:26:53.033Z,14.50
2023-03-17T05:29:20.198Z,14.56
2023-03-17T05:31:47.580Z,14.50
2023-03-17T05:34:16.066Z,14.56
2023-03-17T05:36:43.713Z,14.59
2023-03-17T05:39:11.232Z,14.61
2023-03-17T05:41:39.202Z,14.65
2023-03-17T05:44:06.659Z,14.66
2023-03-17T05:46:33.602Z,14.67
2023-03-17T05:49:00.891Z,14.69
2023-03-17T05:51:27.804Z,14.71
2023-03-17T05:53:55.636Z,14.77
2023-03-17T05:56:22.933Z,14.78
2023-03-17T05:58:49.830Z,14.80
2023-03-17T06:01:16.857Z,14.84
2023-03-17T06:03:43.791Z,14.81
2023-03-17T06:06:10.950Z,14.81
2023-03-17T06:08:37.904Z,14.88
2023-03-17T06:11:04.896Z,14.92
2023-03-17T06:13:31.800Z,14.97
2023-03-17T06:15:58.737Z,14.99
2023-03-17T06:18:25.897Z,15.02
2023-03-17T06:20:53.049Z,15.07
2023-03-17T06:23:20.154Z,15.10
2023-03-17T06:25:47.806Z,15.06
2023-03-17T06:28:14.798Z,15.05
2023-03-17T06:30:41.722Z,15.08
2023-03-17T06:33:08.931Z,15.13
2023-03-17T06:35:36.185Z,15.17
2023-03-17T06:38:03.662Z,15.26
2023-03-17T06:40:30.739Z,15.20
2023-03-17T06:42:57.802Z,15.33
2023-03-17T06:45:24.715Z,15.42
2023-03-17T06:47:51.631Z,15.39
2023-03-17T06:50:18.684Z,15.46
2023-03-17T06:52:46.892Z,15.45
2023-03-17T06:55:14.120Z,15.50
2023-03-17T06:57:41.094Z,15.54
2023-03-17T07:00:10.148Z,15.56
2023-03-17T07:02:37.309Z,15.70
2023-03-17T07:05:04.709Z,15.62
2023-03-17T07:07:31.804Z,15.59
2023-03-17T07:09:58.823Z,15.61
2023-03-17T07:12:26.132Z,15.68
2023-03-17T07:14:53.080Z,15.70
2023-03-17T07:17:20.416Z,15.80
2023-03-17T07:19:47.317Z,15.83
2023-03-17T07:22:14.437Z,15.86
2023-03-17T07:24:44.918Z,15.99
2023-03-17T07:27:11.839Z,15.88
2023-03-17T07:30:05.282Z,15.83
2023-03-17T07:32:33.089Z,15.94
2023-03-17T07:35:00.324Z,16.01
2023-03-17T07:37:27.436Z,16.06
2023-03-17T07:39:54.386Z,15.98
2023-03-17T07:42:21.893Z,15.90
2023-03-17T07:44:49.064Z,15.93
2023-03-17T07:47:16.067Z,15.91
2023-03-17T07:49:43.231Z,15.98
2023-03-17T07:52:11.533Z,16.05
2023-03-17T07:54:42.271Z,16.06
2023-03-17T07:57:10.282Z,16.12
2023-03-17T07:59:38.361Z,16.06
2023-03-17T08:02:05.761Z,16.07
2023-03-17T08:04:32.822Z,16.08
2023-03-17T08:06:59.718Z,16.00
2023-03-17T08:09:27.233Z,16.01
2023-03-17T08:11:54.128Z,15.98
2023-03-17T08:14:21.363Z,15.81
2023-03-17T08:16:48.385Z,15.96
2023-03-17T08:19:15.368Z,15.97
2023-03-17T08:21:43.018Z,16.08
2023-03-17T08:24:09.994Z,16.11
2023-03-17T08:26:37.793Z,16.13
2023-03-17T08:29:08.242Z,16.19
2023-03-17T08:31:35.989Z,16.27
2023-03-17T08:34:03.401Z,16.29
2023-03-17T08:36:30.811Z,16.59
2023-03-17T08:38:58.125Z,17.07
2023-03-17T08:41:27.590Z,16.93
2023-03-17T08:43:55.547Z,17.16
2023-03-17T08:46:28.413Z,18.11
2023-03-17T08:48:57.020Z,18.62
2023-03-17T08:51:26.854Z,19.36
2023-03-17T08:53:55.073Z,18.84
2023-03-17T08:56:22.842Z,18.37
2023-03-17T08:58:50.992Z,18.12
2023-03-17T09:01:21.044Z,17.78
2023-03-17T09:03:48.029Z,17.88
2023-03-17T09:06:15.786Z,17.56
2023-03-17T09:08:45.319Z,17.47
2023-03-17T09:11:14.940Z,18.18
2023-03-17T09:13:42.186Z,18.98
2023-03-17T09:16:10.097Z,20.41
2023-03-17T09:18:37.108Z,20.33
2023-03-17T09:21:04.212Z,19.85
2023-03-17T09:23:31.604Z,19.58
2023-03-17T09:25:58.641Z,19.25
2023-03-17T09:28:25.586Z,19.00
2023-03-17T09:30:53.043Z,18.68
2023-03-17T09:33:20.078Z,18.43
2023-03-17T09:35:47.063Z,18.31
2023-03-17T09:38:13.971Z,17.95
2023-03-17T09:41:06.169Z,17.78
2023-03-17T09:43:47.542Z,17.50
2023-03-17T09:46:50.726Z,17.37
2023-03-17T09:49:21.059Z,17.23
2023-03-17T09:51:49.627Z,17.32
2023-03-17T09:54:38.327Z,17.10
2023-03-17T09:57:11.989Z,17.33
2023-03-17T10:00:01.523Z,17.31
2023-03-17T10:02:33.654Z,17.34
2023-03-17T10:05:12.769Z,17.24
2023-03-17T10:07:49.623Z,17.28
2023-03-17T10:10:35.575Z,17.25
2023-03-17T10:13:16.521Z,17.45
2023-03-17T10:15:53.182Z,18.15
2023-03-17T10:18:25.361Z,18.23
2023-03-17T10:21:06.523Z,18.76
2023-03-17T10:23:35.845Z,19.02
2023-03-17T10:26:08.365Z,20.10
2023-03-17T10:28:38.860Z,19.87
2023-03-17T10:31:16.843Z,19.38
2023-03-17T10:33:47.076Z,18.80
2023-03-17T10:36:17.723Z,18.44
2023-03-17T10:38:54.311Z,17.75
2023-03-17T10:41:24.898Z,17.84
2023-03-17T10:43:52.055Z,18.09
2023-03-17T10:46:22.446Z,18.16
2023-03-17T10:48:53.341Z,18.57
2023-03-17T10:51:32.911Z,19.37
2023-03-17T10:54:11.124Z,19.67
2023-03-17T10:56:42.353Z,19.97
2023-03-17T10:59:17.458Z,20.08
2023-03-17T11:01:50.193Z,19.76
2023-03-17T11:04:28.685Z,19.72
2023-03-17T11:06:58.518Z,20.24
2023-03-17T11:09:28.169Z,20.80
2023-03-17T11:12:21.430Z,20.51
2023-03-17T11:14:49.427Z,19.92
2023-03-17T11:17:21.248Z,19.69
2023-03-17T11:20:04.564Z,19.77
2023-03-17T11:22:34.164Z,19.54
2023-03-17T11:25:04.527Z,19.68
2023-03-17T11:27:35.646Z,20.52
2023-03-17T11:30:14.261Z,20.38
2023-03-17T11:32:58.180Z,19.94
2023-03-17T11:35:53.271Z,19.41
2023-03-17T11:38:24.776Z,18.99
2023-03-17T11:41:13.990Z,18.82
2023-03-17T11:44:13.802Z,18.10
2023-03-17T11:47:14.300Z,17.76
2023-03-17T11:49:44.754Z,18.26
2023-03-17T11:52:28.625Z,18.03
2023-03-17T11:55:24.712Z,17.84
2023-03-17T11:58:05.747Z,17.67
2023-03-17T12:00:37.524Z,17.33
2023-03-17T12:03:19.583Z,17.11
2023-03-17T12:05:52.056Z,17.18
2023-03-17T12:08:54.323Z,17.29
2023-03-17T12:11:28.200Z,17.40
2023-03-17T12:14:08.157Z,17.03
2023-03-17T12:16:57.898Z,17.04
2023-03-17T12:19:28.432Z,16.63
2023-03-17T12:22:01.361Z,16.56
2023-03-17T12:25:00.658Z,16.39
2023-03-17T12:27:32.729Z,16.51
2023-03-17T12:30:05.593Z,16.37
2023-03-17T12:33:10.967Z,16.25
2023-03-17T12:35:41.099Z,16.41
2023-03-17T12:38:25.707Z,16.51
2023-03-17T12:41:29.954Z,16.26
2023-03-17T12:44:10.115Z,16.29
2023-03-17T12:46:46.103Z,16.40
2023-03-17T12:49:19.066Z,16.46
2023-03-17T12:51:55.007Z,16.55
2023-03-17T12:54:27.583Z,16.52
2023-03-17T12:57:02.944Z,16.49
2023-03-17T12:59:31.391Z,16.52
2023-03-17T13:02:15.732Z,16.41
2023-03-17T13:04:58.145Z,16.08
2023-03-17T13:08:11.086Z,16.23
2023-03-17T13:10:48.761Z,16.23
2023-03-17T13:13:23.554Z,16.05
2023-03-17T13:15:58.296Z,16.21
2023-03-17T13:18:47.352Z,15.96
2023-03-17T13:21:18.836Z,16.14
2023-03-17T13:24:19.202Z,16.34
2023-03-17T13:26:56.469Z,16.45
2023-03-17T13:29:46.430Z,16.66
2023-03-17T13:32:34.355Z,16.75
2023-03-17T13:35:01.810Z,16.87
2023-03-17T13:37:33.711Z,16.98
2023-03-17T13:40:07.965Z,16.87
2023-03-17T13:42:48.375Z,16.80
2023-03-17T13:45:32.305Z,16.91
2023-03-17T13:48:27.495Z,16.68
2023-03-17T13:51:09.661Z,16.79
2023-03-17T13:53:41.630Z,16.62
2023-03-17T13:56:26.870Z,16.25
2023-03-17T13:59:02.476Z,16.18
2023-03-17T14:01:37.686Z,15.93
2023-03-17T14:04:15.361Z,15.73
2023-03-17T14:06:42.647Z,15.73
2023-03-17T14:09:28.389Z,15.98
2023-03-17T14:12:00.135Z,16.44
2023-03-17T14:14:33.560Z,16.55
2023-03-17T14:17:36.078Z,16.57
2023-03-17T14:20:08.741Z,16.26
2023-03-17T14:22:47.896Z,16.20
2023-03-17T14:25:20.685Z,16.10
2023-03-17T14:27:57.108Z,16.28
2023-03-17T14:30:29.772Z,16.33
2023-03-17T14:32:59.721Z,16.43
2023-03-17T14:35:31.425Z,16.47
2023-03-17T14:37:59.660Z,16.66
2023-03-17T14:40:30.348Z,16.45
2023-03-17T14:42:57.534Z,16.45
2023-03-17T14:45:30.030Z,16.34
2023-03-17T14:47:57.266Z,16.34
2023-03-17T14:50:33.056Z,16.18
2023-03-17T14:53:01.061Z,15.87
2023-03-17T14:55:38.407Z,16.04
2023-03-17T14:58:31.394Z,16.14
2023-03-17T15:01:15.664Z,16.37
2023-03-17T15:03:56.543Z,16.49
2023-03-17T15:06:24.991Z,16.35
2023-03-17T15:08:52.785Z,16.21
2023-03-17T15:11:26.238Z,16.22
2023-03-17T15:14:03.602Z,16.22
2023-03-17T15:16:35.012Z,16.10
2023-03-17T15:19:09.256Z,15.99
2023-03-17T15:21:40.942Z,16.01
2023-03-17T15:24:35.159Z,15.88
2023-03-17T15:27:18.349Z,15.80
2023-03-17T15:29:47.527Z,15.93
2023-03-17T15:32:20.447Z,16.00
2023-03-17T15:34:48.365Z,15.99
2023-03-17T15:37:16.853Z,15.97
2023-03-17T15:39:44.087Z,15.96
2023-03-17T15:42:11.161Z,15.97
2023-03-17T15:44:38.110Z,15.88
2023-03-17T15:47:05.528Z,16.04
2023-03-17T15:49:32.450Z,15.88
2023-03-17T15:51:59.323Z,15.90
2023-03-17T15:54:26.296Z,15.87
2023-03-17T15:56:53.156Z,16.02
2023-03-17T15:59:20.107Z,15.95
2023-03-17T16:01:47.204Z,15.85
2023-03-17T16:04:14.391Z,15.76
2023-03-17T16:06:41.984Z,15.73
2023-03-17T16:09:15.617Z,15.72
2023-03-17T16:11:42.671Z,15.49
2023-03-17T16:14:10.733Z,15.46
2023-03-17T16:16:41.519Z,15.35
2023-03-17T16:19:15.014Z,15.45
2023-03-17T16:21:42.640Z,15.60
2023-03-17T16:24:18.023Z,15.60
2023-03-17T16:26:45.031Z,15.51
2023-03-17T16:29:16.301Z,15.37
2023-03-17T16:31:46.784Z,15.38
2023-03-17T16:34:19.912Z,15.48
2023-03-17T16:36:48.596Z,15.56
2023-03-17T16:39:22.525Z,15.75
2023-03-17T16:41:50.791Z,15.89
2023-03-17T16:44:21.094Z,15.97
2023-03-17T16:46:48.605Z,16.01
2023-03-17T16:49:17.725Z,16.02
2023-03-17T16:51:45.119Z,16.03
2023-03-17T16:54:12.872Z,15.79
2023-03-17T16:56:41.367Z,15.78
2023-03-17T16:59:16.182Z,15.67
2023-03-17T17:01:43.198Z,15.58
2023-03-17T17:04:11.314Z,15.63
2023-03-17T17:06:38.417Z,15.53
2023-03-17T17:09:05.426Z,15.49
2023-03-17T17:11:32.504Z,15.55
2023-03-17T17:13:59.957Z,15.63
2023-03-17T17:16:33.244Z,15.70
2023-03-17T17:19:01.345Z,15.52
2023-03-17T17:21:28.808Z,15.50
2023-03-17T17:23:56.015Z,15.36
2023-03-17T17:26:23.456Z,15.39
2023-03-17T17:28:50.531Z,15.19
2023-03-17T17:31:17.587Z,15.24
2023-03-17T17:33:44.585Z,15.11
2023-03-17T17:36:16.951Z,15.18
2023-03-17T17:38:44.577Z,15.17
2023-03-17T17:41:12.604Z,15.21
2023-03-17T17:43:40.389Z,15.19
2023-03-17T17:46:18.544Z,15.04
2023-03-17T17:48:46.150Z,15.09
2023-03-17T17:51:13.231Z,15.02
2023-03-17T17:53:40.457Z,15.06
2023-03-17T17:56:08.486Z,15.05
2023-03-17T17:58:35.518Z,15.03
2023-03-17T18:01:04.827Z,15.02
2023-03-17T18:03:32.268Z,15.01
2023-03-17T18:05:59.538Z,15.05
2023-03-17T18:08:27.174Z,14.96
2023-03-17T18:10:55.815Z,14.91
2023-03-17T18:13:23.627Z,14.90
2023-03-17T18:15:51.032Z,14.91
2023-03-17T18:18:18.246Z,14.80
2023-03-17T18:20:45.181Z,14.93
2023-03-17T18:23:12.335Z,14.88
2023-03-17T18:25:39.339Z,14.87
2023-03-17T18:28:06.418Z,14.91
2023-03-17T18:30:35.310Z,14.91
2023-03-17T18:33:09.926Z,14.89
2023-03-17T18:35:37.861Z,14.94
2023-03-17T18:38:04.934Z,14.83
2023-03-17T18:40:31.952Z,14.81
2023-03-17T18:42:58.895Z,14.67
2023-03-17T18:45:26.002Z,14.73
2023-03-17T18:47:53.037Z,14.69
2023-03-17T18:50:22.049Z,14.64
2023-03-17T18:52:50.133Z,14.64
2023-03-17T18:55:17.250Z,14.63
2023-03-17T18:57:45.025Z,14.62
2023-03-17T19:00:16.457Z,14.70
2023-03-17T19:02:43.773Z,14.71
2023-03-17T19:05:11.945Z,14.69
2023-03-17T19:07:40.755Z,14.76
2023-03-17T19:10:09.833Z,14.75
2023-03-17T19:12:37.438Z,14.75
2023-03-17T19:15:06.407Z,14.69
2023-03-17T19:17:33.815Z,14.73
2023-03-17T19:20:01.238Z,14.73
2023-03-17T19:22:28.221Z,14.75
2023-03-17T19:24:55.568Z,14.80
2023-03-17T19:27:22.464Z,14.70
2023-03-17T19:29:49.562Z,14.74
2023-03-17T19:32:17.445Z,14.72
2023-03-17T19:34:44.735Z,14.72
2023-03-17T19:37:11.737Z,14.73
2023-03-17T19:39:38.718Z,14.80
2023-03-17T19:42:05.922Z,14.82
2023-03-17T19:44:33.785Z,14.82
2023-03-17T19:47:05.240Z,14.91
2023-03-17T19:49:34.158Z,14.96
2023-03-17T19:52:01.676Z,14.97
2023-03-17T19:54:28.681Z,14.95
2023-03-17T19:56:55.786Z,14.93
2023-03-17T19:59:23.197Z,15.03
2023-03-17T20:01:50.682Z,15.04
2023-03-17T20:04:19.646Z,15.05
2023-03-17T20:06:46.975Z,15.02
2023-03-17T20:09:14.645Z,15.10
2023-03-17T20:11:41.674Z,15.13
2023-03-17T20:14:08.851Z,15.19
2023-03-17T20:16:36.650Z,15.23
2023-03-17T20:19:04.139Z,15.26
2023-03-17T20:21:31.472Z,15.16
2023-03-17T20:23:58.513Z,15.15
2023-03-17T20:26:25.750Z,15.12
2023-03-17T20:28:53.912Z,15.17
2023-03-17T20:31:20.907Z,15.11
2023-03-17T20:33:48.179Z,15.10
2023-03-17T20:36:15.204Z,15.02
2023-03-17T20:38:43.873Z,15.01
2023-03-17T20:41:16.135Z,15.00
2023-03-17T20:43:44.026Z,15.09
2023-03-17T20:46:17.357Z,14.98
2023-03-17T20:48:46.886Z,15.03
2023-03-17T20:51:17.329Z,15.03
2023-03-17T20:53:46.697Z,15.10
2023-03-17T20:56:19.983Z,15.05
2023-03-17T20:58:48.648Z,15.00
2023-03-17T21:01:18.228Z,15.05
2023-03-17T21:03:47.625Z,15.03
2023-03-17T21:06:15.316Z,15.06
2023-03-17T21:08:42.512Z,14.97
2023-03-17T21:11:16.621Z,15.06
2023-03-17T21:13:44.830Z,15.01
2023-03-17T21:16:24.089Z,15.10
2023-03-17T21:18:51.694Z,15.11
2023-03-17T21:21:20.393Z,15.13
2023-03-17T21:23:47.422Z,15.07
2023-03-17T21:26:15.041Z,15.14
2023-03-17T21:28:42.782Z,15.06
2023-03-17T21:31:12.314Z,15.08
2023-03-17T21:33:42.554Z,15.12
2023-03-17T21:36:10.126Z,15.01
2023-03-17T21:38:37.775Z,15.05
2023-03-17T21:41:33.337Z,15.15
2023-03-17T21:44:02.161Z,15.15
2023-03-17T21:46:31.769Z,15.20
2023-03-17T21:48:59.483Z,15.18
2023-03-17T21:51:27.476Z,15.19
2023-03-17T21:53:54.754Z,15.24
2023-03-17T21:56:22.451Z,15.21
2023-03-17T21:58:50.027Z,15.19
2023-03-17T22:01:23.251Z,15.16
2023-03-17T22:03:55.054Z,15.28
2023-03-17T22:06:22.845Z,15.36
2023-03-17T22:08:52.026Z,15.41
2023-03-17T22:11:20.154Z,15.42
2023-03-17T22:13:47.934Z,15.50
2023-03-17T22:16:16.753Z,15.51
2023-03-17T22:18:44.793Z,15.53
2023-03-17T22:21:15.208Z,15.54
2023-03-17T22:23:42.559Z,15.50
2023-03-17T22:26:13.461Z,15.45
2023-03-17T22:28:48.564Z,15.51
2023-03-17T22:31:24.802Z,15.42
2023-03-17T22:33:55.417Z,15.39
2023-03-17T22:36:23.530Z,15.40
2023-03-17T22:38:53.621Z,15.41
2023-03-17T22:41:23.732Z,15.37
2023-03-17T22:43:51.645Z,15.34
2023-03-17T22:46:19.398Z,15.29
2023-03-17T22:48:48.862Z,15.24
2023-03-17T22:51:22.000Z,15.24
2023-03-17T22:53:52.716Z,15.19
2023-03-17T22:56:20.398Z,15.23
2023-03-17T22:58:47.938Z,15.17
2023-03-17T23:01:17.054Z,15.16
2023-03-17T23:03:45.341Z,15.20
2023-03-17T23:06:13.349Z,15.22
2023-03-17T23:08:42.900Z,15.13
2023-03-17T23:11:16.513Z,15.24
2023-03-17T23:13:45.409Z,15.22
2023-03-17T23:16:12.772Z,15.17
2023-03-17T23:18:40.023Z,15.23
2023-03-17T23:21:09.020Z,15.23
2023-03-17T23:23:38.291Z,15.18
2023-03-17T23:26:06.593Z,15.12
2023-03-17T23:28:33.540Z,15.06
2023-03-17T23:31:02.840Z,15.03
2023-03-17T23:33:30.377Z,15.03
2023-03-17T23:35:57.333Z,15.01
2023-03-17T23:38:24.361Z,15.01
2023-03-17T23:40:51.848Z,14.94
2023-03-17T23:43:19.643Z,15.00
2023-03-17T23:45:46.650Z,15.02
2023-03-17T23:48:13.776Z,14.92
2023-03-17T23:50:41.928Z,15.02
2023-03-17T23:53:09.742Z,15.03
2023-03-17T23:55:36.769Z,15.07
2023-03-17T23:58:03.810Z,15.11
